sensor_id;sensor_type;location;lat;lon;timestamp;P1;durP1;ratioP1;P2;durP2;ratioP2
19388;SDS011;9830;41.876;23.474;2022-12-29T00:01:36;25.93;;;5.63;;
19388;SDS011;9830;41.876;23.474;2022-12-29T00:04:02;6.27;;;4.90;;
19388;SDS011;9830;41.876;23.474;2022-12-29T00:06:29;15.20;;;5.80;;
19388;SDS011;9830;41.876;23.474;2022-12-29T00:08:55;13.47;;;5.97;;
19388;SDS011;9830;41.876;23.474;2022-12-29T00:11:21;6.23;;;4.83;;
19388;SDS011;9830;41.876;23.474;2022-12-29T00:13:48;6.37;;;4.50;;
19388;SDS011;9830;41.876;23.474;2022-12-29T00:16:47;14.00;;;5.53;;
19388;SDS011;9830;41.876;23.474;2022-12-29T00:19:13;7.90;;;5.83;;
19388;SDS011;9830;41.876;23.474;2022-12-29T00:21:57;5.67;;;5.13;;
19388;SDS011;9830;41.876;23.474;2022-12-29T00:24:42;7.90;;;4.20;;
19388;SDS011;9830;41.876;23.474;2022-12-29T00:27:29;11.47;;;4.60;;
19388;SDS011;9830;41.876;23.474;2022-12-29T00:30:15;10.20;;;5.80;;
19388;SDS011;9830;41.876;23.474;2022-12-29T00:33:07;7.87;;;6.00;;
19388;SDS011;9830;41.876;23.474;2022-12-29T00:38:33;16.40;;;7.07;;
19388;SDS011;9830;41.876;23.474;2022-12-29T00:41:21;4.73;;;4.27;;
19388;SDS011;9830;41.876;23.474;2022-12-29T00:44:05;11.53;;;6.20;;
19388;SDS011;9830;41.876;23.474;2022-12-29T00:46:32;10.20;;;5.70;;
19388;SDS011;9830;41.876;23.474;2022-12-29T00:48:58;9.57;;;6.33;;
19388;SDS011;9830;41.876;23.474;2022-12-29T00:51:43;9.40;;;5.97;;
19388;SDS011;9830;41.876;23.474;2022-12-29T00:54:09;17.10;;;7.77;;
19388;SDS011;9830;41.876;23.474;2022-12-29T00:56:35;10.00;;;6.47;;
19388;SDS011;9830;41.876;23.474;2022-12-29T00:59:04;5.23;;;4.70;;
19388;SDS011;9830;41.876;23.474;2022-12-29T01:01:32;14.40;;;5.17;;
19388;SDS011;9830;41.876;23.474;2022-12-29T01:04:00;5.63;;;4.43;;
19388;SDS011;9830;41.876;23.474;2022-12-29T01:06:25;8.57;;;4.70;;
19388;SDS011;9830;41.876;23.474;2022-12-29T01:08:51;14.90;;;6.40;;
19388;SDS011;9830;41.876;23.474;2022-12-29T01:11:36;19.47;;;7.53;;
19388;SDS011;9830;41.876;23.474;2022-12-29T01:14:05;14.07;;;6.40;;
19388;SDS011;9830;41.876;23.474;2022-12-29T01:16:31;7.17;;;4.60;;
19388;SDS011;9830;41.876;23.474;2022-12-29T01:18:57;13.67;;;5.40;;
19388;SDS011;9830;41.876;23.474;2022-12-29T01:21:23;17.13;;;5.97;;
19388;SDS011;9830;41.876;23.474;2022-12-29T01:23:50;7.00;;;6.30;;
19388;SDS011;9830;41.876;23.474;2022-12-29T01:26:16;10.77;;;6.63;;
19388;SDS011;9830;41.876;23.474;2022-12-29T01:28:42;6.00;;;5.40;;
19388;SDS011;9830;41.876;23.474;2022-12-29T01:31:09;8.77;;;4.50;;
19388;SDS011;9830;41.876;23.474;2022-12-29T01:33:35;4.97;;;4.43;;
19388;SDS011;9830;41.876;23.474;2022-12-29T01:36:02;11.63;;;5.60;;
19388;SDS011;9830;41.876;23.474;2022-12-29T01:38:29;5.40;;;4.90;;
19388;SDS011;9830;41.876;23.474;2022-12-29T01:40:55;10.57;;;5.77;;
19388;SDS011;9830;41.876;23.474;2022-12-29T01:43:21;11.33;;;5.10;;
19388;SDS011;9830;41.876;23.474;2022-12-29T01:46:03;14.17;;;6.70;;
19388;SDS011;9830;41.876;23.474;2022-12-29T01:48:29;6.23;;;5.03;;
19388;SDS011;9830;41.876;23.474;2022-12-29T01:50:55;14.80;;;7.03;;
19388;SDS011;9830;41.876;23.474;2022-12-29T01:53:22;13.70;;;9.07;;
19388;SDS011;9830;41.876;23.474;2022-12-29T01:55:54;14.93;;;7.87;;
19388;SDS011;9830;41.876;23.474;2022-12-29T01:58:23;28.03;;;12.30;;
19388;SDS011;9830;41.876;23.474;2022-12-29T02:00:53;16.07;;;10.83;;
19388;SDS011;9830;41.876;23.474;2022-12-29T02:03:19;23.77;;;7.87;;
19388;SDS011;9830;41.876;23.474;2022-12-29T02:05:49;19.03;;;10.90;;
19388;SDS011;9830;41.876;23.474;2022-12-29T02:08:37;9.80;;;6.37;;
19388;SDS011;9830;41.876;23.474;2022-12-29T02:11:04;19.97;;;5.70;;
19388;SDS011;9830;41.876;23.474;2022-12-29T02:13:31;6.30;;;4.27;;
19388;SDS011;9830;41.876;23.474;2022-12-29T02:16:06;15.00;;;6.90;;
19388;SDS011;9830;41.876;23.474;2022-12-29T02:21:48;8.73;;;4.30;;
19388;SDS011;9830;41.876;23.474;2022-12-29T02:24:40;7.30;;;3.87;;
19388;SDS011;9830;41.876;23.474;2022-12-29T02:32:52;3.43;;;3.10;;
19388;SDS011;9830;41.876;23.474;2022-12-29T02:40:54;2.77;;;2.53;;
19388;SDS011;9830;41.876;23.474;2022-12-29T02:49:13;3.77;;;3.17;;
19388;SDS011;9830;41.876;23.474;2022-12-29T02:54:17;2.50;;;2.33;;
19388;SDS011;9830;41.876;23.474;2022-12-29T03:05:31;1.17;;;1.07;;
19388;SDS011;9830;41.876;23.474;2022-12-29T03:08:10;10.53;;;3.43;;
19388;SDS011;9830;41.876;23.474;2022-12-29T03:13:25;0.50;;;0.50;;
19388;SDS011;9830;41.876;23.474;2022-12-29T03:16:49;1.97;;;1.80;;
19388;SDS011;9830;41.876;23.474;2022-12-29T03:19:22;0.97;;;0.87;;
19388;SDS011;9830;41.876;23.474;2022-12-29T03:21:50;0.70;;;0.70;;
19388;SDS011;9830;41.876;23.474;2022-12-29T03:24:45;1.53;;;1.43;;
19388;SDS011;9830;41.876;23.474;2022-12-29T03:27:16;1.23;;;0.97;;
19388;SDS011;9830;41.876;23.474;2022-12-29T03:29:53;1.53;;;0.87;;
19388;SDS011;9830;41.876;23.474;2022-12-29T03:32:24;0.67;;;0.67;;
19388;SDS011;9830;41.876;23.474;2022-12-29T03:34:56;0.30;;;0.30;;
19388;SDS011;9830;41.876;23.474;2022-12-29T03:37:23;0.57;;;0.57;;
19388;SDS011;9830;41.876;23.474;2022-12-29T03:39:55;1.10;;;1.10;;
19388;SDS011;9830;41.876;23.474;2022-12-29T03:42:23;2.93;;;2.43;;
19388;SDS011;9830;41.876;23.474;2022-12-29T03:44:53;0.40;;;0.40;;
19388;SDS011;9830;41.876;23.474;2022-12-29T03:47:22;9.43;;;1.63;;
19388;SDS011;9830;41.876;23.474;2022-12-29T03:49:48;1.03;;;0.53;;
19388;SDS011;9830;41.876;23.474;2022-12-29T03:52:14;1.27;;;1.23;;
19388;SDS011;9830;41.876;23.474;2022-12-29T03:54:40;1.03;;;1.03;;
19388;SDS011;9830;41.876;23.474;2022-12-29T03:57:06;4.33;;;0.90;;
19388;SDS011;9830;41.876;23.474;2022-12-29T03:59:33;3.30;;;0.50;;
19388;SDS011;9830;41.876;23.474;2022-12-29T04:01:58;1.23;;;1.17;;
19388;SDS011;9830;41.876;23.474;2022-12-29T04:04:24;5.60;;;1.60;;
19388;SDS011;9830;41.876;23.474;2022-12-29T04:06:49;0.93;;;0.93;;
19388;SDS011;9830;41.876;23.474;2022-12-29T04:09:15;0.40;;;0.40;;
19388;SDS011;9830;41.876;23.474;2022-12-29T04:11:41;1.40;;;1.03;;
19388;SDS011;9830;41.876;23.474;2022-12-29T04:14:06;1.70;;;0.80;;
19388;SDS011;9830;41.876;23.474;2022-12-29T04:16:32;1.87;;;1.33;;
19388;SDS011;9830;41.876;23.474;2022-12-29T04:19:00;9.30;;;4.07;;
19388;SDS011;9830;41.876;23.474;2022-12-29T04:21:26;3.63;;;2.63;;
19388;SDS011;9830;41.876;23.474;2022-12-29T04:23:52;0.97;;;0.97;;
19388;SDS011;9830;41.876;23.474;2022-12-29T04:26:18;2.43;;;2.07;;
19388;SDS011;9830;41.876;23.474;2022-12-29T04:28:43;1.57;;;1.43;;
19388;SDS011;9830;41.876;23.474;2022-12-29T04:31:09;1.20;;;1.17;;
19388;SDS011;9830;41.876;23.474;2022-12-29T04:33:35;1.40;;;1.30;;
19388;SDS011;9830;41.876;23.474;2022-12-29T04:36:01;2.90;;;2.60;;
19388;SDS011;9830;41.876;23.474;2022-12-29T04:38:27;4.23;;;2.47;;
19388;SDS011;9830;41.876;23.474;2022-12-29T04:40:53;3.63;;;2.63;;
19388;SDS011;9830;41.876;23.474;2022-12-29T04:43:18;5.57;;;4.27;;
19388;SDS011;9830;41.876;23.474;2022-12-29T04:45:47;7.10;;;6.47;;
19388;SDS011;9830;41.876;23.474;2022-12-29T04:48:13;9.40;;;6.17;;
19388;SDS011;9830;41.876;23.474;2022-12-29T04:50:40;5.67;;;5.10;;
19388;SDS011;9830;41.876;23.474;2022-12-29T04:53:06;3.13;;;2.90;;
19388;SDS011;9830;41.876;23.474;2022-12-29T04:55:32;6.27;;;5.67;;
19388;SDS011;9830;41.876;23.474;2022-12-29T04:57:58;8.50;;;5.00;;
19388;SDS011;9830;41.876;23.474;2022-12-29T05:00:24;10.43;;;7.40;;
19388;SDS011;9830;41.876;23.474;2022-12-29T05:02:50;6.57;;;4.87;;
19388;SDS011;9830;41.876;23.474;2022-12-29T05:05:16;10.83;;;5.87;;
19388;SDS011;9830;41.876;23.474;2022-12-29T05:07:42;3.40;;;3.10;;
19388;SDS011;9830;41.876;23.474;2022-12-29T05:10:08;4.27;;;2.87;;
19388;SDS011;9830;41.876;23.474;2022-12-29T05:12:35;6.77;;;3.93;;
19388;SDS011;9830;41.876;23.474;2022-12-29T05:15:02;5.87;;;4.10;;
19388;SDS011;9830;41.876;23.474;2022-12-29T05:17:29;3.57;;;2.97;;
19388;SDS011;9830;41.876;23.474;2022-12-29T05:19:55;3.93;;;2.47;;
19388;SDS011;9830;41.876;23.474;2022-12-29T05:22:21;11.37;;;2.37;;
19388;SDS011;9830;41.876;23.474;2022-12-29T05:24:47;10.37;;;3.70;;
19388;SDS011;9830;41.876;23.474;2022-12-29T05:27:12;5.77;;;3.57;;
19388;SDS011;9830;41.876;23.474;2022-12-29T05:29:38;6.27;;;3.67;;
19388;SDS011;9830;41.876;23.474;2022-12-29T05:32:04;2.87;;;2.67;;
19388;SDS011;9830;41.876;23.474;2022-12-29T05:34:30;8.93;;;6.80;;
19388;SDS011;9830;41.876;23.474;2022-12-29T05:36:56;6.70;;;4.67;;
19388;SDS011;9830;41.876;23.474;2022-12-29T05:39:22;8.37;;;6.60;;
19388;SDS011;9830;41.876;23.474;2022-12-29T05:41:48;8.00;;;5.03;;
19388;SDS011;9830;41.876;23.474;2022-12-29T05:44:14;6.93;;;4.87;;
19388;SDS011;9830;41.876;23.474;2022-12-29T05:46:39;8.50;;;6.07;;
19388;SDS011;9830;41.876;23.474;2022-12-29T05:49:05;2.73;;;2.50;;
19388;SDS011;9830;41.876;23.474;2022-12-29T05:51:31;11.43;;;4.73;;
19388;SDS011;9830;41.876;23.474;2022-12-29T05:53:57;6.90;;;3.50;;
19388;SDS011;9830;41.876;23.474;2022-12-29T05:56:22;3.80;;;2.73;;
19388;SDS011;9830;41.876;23.474;2022-12-29T05:58:48;1.73;;;1.60;;
19388;SDS011;9830;41.876;23.474;2022-12-29T06:01:14;6.53;;;4.33;;
19388;SDS011;9830;41.876;23.474;2022-12-29T06:03:40;8.23;;;3.37;;
19388;SDS011;9830;41.876;23.474;2022-12-29T06:06:05;6.47;;;5.87;;
19388;SDS011;9830;41.876;23.474;2022-12-29T06:08:32;6.40;;;4.83;;
19388;SDS011;9830;41.876;23.474;2022-12-29T06:10:57;7.23;;;3.17;;
19388;SDS011;9830;41.876;23.474;2022-12-29T06:13:23;14.63;;;5.47;;
19388;SDS011;9830;41.876;23.474;2022-12-29T06:15:49;8.70;;;4.70;;
19388;SDS011;9830;41.876;23.474;2022-12-29T06:18:14;6.63;;;5.93;;
19388;SDS011;9830;41.876;23.474;2022-12-29T06:20:41;4.50;;;4.17;;
19388;SDS011;9830;41.876;23.474;2022-12-29T06:23:06;8.80;;;5.23;;
19388;SDS011;9830;41.876;23.474;2022-12-29T06:25:32;8.17;;;7.37;;
19388;SDS011;9830;41.876;23.474;2022-12-29T06:27:59;8.97;;;5.33;;
19388;SDS011;9830;41.876;23.474;2022-12-29T06:30:24;10.37;;;6.43;;
19388;SDS011;9830;41.876;23.474;2022-12-29T06:32:50;6.23;;;5.67;;
19388;SDS011;9830;41.876;23.474;2022-12-29T06:35:16;6.00;;;5.43;;
19388;SDS011;9830;41.876;23.474;2022-12-29T06:37:42;5.63;;;5.13;;
19388;SDS011;9830;41.876;23.474;2022-12-29T06:40:08;6.23;;;4.27;;
19388;SDS011;9830;41.876;23.474;2022-12-29T06:42:34;6.00;;;4.63;;
19388;SDS011;9830;41.876;23.474;2022-12-29T06:45:00;7.17;;;5.27;;
19388;SDS011;9830;41.876;23.474;2022-12-29T06:47:26;5.23;;;4.73;;
19388;SDS011;9830;41.876;23.474;2022-12-29T06:49:52;7.17;;;4.83;;
19388;SDS011;9830;41.876;23.474;2022-12-29T06:52:17;4.07;;;3.73;;
19388;SDS011;9830;41.876;23.474;2022-12-29T06:54:43;4.37;;;3.97;;
19388;SDS011;9830;41.876;23.474;2022-12-29T06:57:09;6.33;;;4.97;;
19388;SDS011;9830;41.876;23.474;2022-12-29T06:59:35;6.50;;;5.37;;
19388;SDS011;9830;41.876;23.474;2022-12-29T07:02:00;7.20;;;5.53;;
19388;SDS011;9830;41.876;23.474;2022-12-29T07:04:27;10.00;;;5.33;;
19388;SDS011;9830;41.876;23.474;2022-12-29T07:06:53;9.13;;;7.13;;
19388;SDS011;9830;41.876;23.474;2022-12-29T07:09:19;7.63;;;5.53;;
19388;SDS011;9830;41.876;23.474;2022-12-29T07:11:45;6.03;;;5.43;;
19388;SDS011;9830;41.876;23.474;2022-12-29T07:14:11;21.17;;;7.87;;
19388;SDS011;9830;41.876;23.474;2022-12-29T07:16:37;21.47;;;8.13;;
19388;SDS011;9830;41.876;23.474;2022-12-29T07:19:03;16.33;;;8.97;;
19388;SDS011;9830;41.876;23.474;2022-12-29T07:21:28;7.13;;;5.93;;
19388;SDS011;9830;41.876;23.474;2022-12-29T07:23:55;14.63;;;8.30;;
19388;SDS011;9830;41.876;23.474;2022-12-29T07:26:20;10.30;;;6.40;;
19388;SDS011;9830;41.876;23.474;2022-12-29T07:28:46;17.77;;;7.77;;
19388;SDS011;9830;41.876;23.474;2022-12-29T07:31:16;6.90;;;6.20;;
19388;SDS011;9830;41.876;23.474;2022-12-29T07:33:44;15.10;;;7.20;;
19388;SDS011;9830;41.876;23.474;2022-12-29T07:36:10;6.90;;;6.23;;
19388;SDS011;9830;41.876;23.474;2022-12-29T07:38:37;7.10;;;5.67;;
19388;SDS011;9830;41.876;23.474;2022-12-29T07:41:03;5.00;;;4.60;;
19388;SDS011;9830;41.876;23.474;2022-12-29T07:43:29;18.57;;;8.87;;
19388;SDS011;9830;41.876;23.474;2022-12-29T07:45:55;6.23;;;5.23;;
19388;SDS011;9830;41.876;23.474;2022-12-29T07:48:20;9.50;;;5.50;;
19388;SDS011;9830;41.876;23.474;2022-12-29T07:50:46;10.67;;;5.83;;
19388;SDS011;9830;41.876;23.474;2022-12-29T07:53:12;4.97;;;4.57;;
19388;SDS011;9830;41.876;23.474;2022-12-29T07:55:37;4.50;;;4.17;;
19388;SDS011;9830;41.876;23.474;2022-12-29T07:58:03;8.73;;;5.63;;
19388;SDS011;9830;41.876;23.474;2022-12-29T08:00:29;18.53;;;7.57;;
19388;SDS011;9830;41.876;23.474;2022-12-29T08:02:55;10.83;;;7.87;;
19388;SDS011;9830;41.876;23.474;2022-12-29T08:05:20;12.33;;;6.23;;
19388;SDS011;9830;41.876;23.474;2022-12-29T08:07:46;11.13;;;7.67;;
19388;SDS011;9830;41.876;23.474;2022-12-29T08:10:13;21.60;;;7.60;;
19388;SDS011;9830;41.876;23.474;2022-12-29T08:12:40;20.10;;;8.93;;
19388;SDS011;9830;41.876;23.474;2022-12-29T08:15:07;17.70;;;7.90;;
19388;SDS011;9830;41.876;23.474;2022-12-29T08:17:34;16.17;;;9.80;;
19388;SDS011;9830;41.876;23.474;2022-12-29T08:20:00;14.97;;;8.07;;
19388;SDS011;9830;41.876;23.474;2022-12-29T08:22:25;25.10;;;12.83;;
19388;SDS011;9830;41.876;23.474;2022-12-29T08:24:51;25.50;;;10.17;;
19388;SDS011;9830;41.876;23.474;2022-12-29T08:27:17;14.27;;;10.23;;
19388;SDS011;9830;41.876;23.474;2022-12-29T08:29:43;34.33;;;11.93;;
19388;SDS011;9830;41.876;23.474;2022-12-29T08:32:08;23.33;;;8.90;;
19388;SDS011;9830;41.876;23.474;2022-12-29T08:34:34;61.07;;;14.30;;
19388;SDS011;9830;41.876;23.474;2022-12-29T08:37:00;20.80;;;11.20;;
19388;SDS011;9830;41.876;23.474;2022-12-29T08:39:26;20.73;;;9.40;;
19388;SDS011;9830;41.876;23.474;2022-12-29T08:41:52;34.93;;;9.53;;
19388;SDS011;9830;41.876;23.474;2022-12-29T08:44:18;20.20;;;8.93;;
19388;SDS011;9830;41.876;23.474;2022-12-29T08:46:43;25.33;;;10.03;;
19388;SDS011;9830;41.876;23.474;2022-12-29T08:49:09;14.67;;;10.63;;
19388;SDS011;9830;41.876;23.474;2022-12-29T08:51:34;10.83;;;9.13;;
19388;SDS011;9830;41.876;23.474;2022-12-29T08:54:00;11.83;;;8.90;;
19388;SDS011;9830;41.876;23.474;2022-12-29T08:56:26;17.50;;;8.77;;
19388;SDS011;9830;41.876;23.474;2022-12-29T08:58:52;28.47;;;10.13;;
19388;SDS011;9830;41.876;23.474;2022-12-29T09:01:18;27.20;;;10.93;;
19388;SDS011;9830;41.876;23.474;2022-12-29T09:03:45;20.73;;;8.33;;
19388;SDS011;9830;41.876;23.474;2022-12-29T09:06:11;14.97;;;8.23;;
19388;SDS011;9830;41.876;23.474;2022-12-29T09:08:38;6.63;;;6.03;;
19388;SDS011;9830;41.876;23.474;2022-12-29T09:13:34;28.30;;;6.93;;
19388;SDS011;9830;41.876;23.474;2022-12-29T09:15:59;17.87;;;7.73;;
19388;SDS011;9830;41.876;23.474;2022-12-29T09:18:25;11.23;;;6.27;;
19388;SDS011;9830;41.876;23.474;2022-12-29T09:20:58;13.03;;;5.80;;
19388;SDS011;9830;41.876;23.474;2022-12-29T09:23:25;12.37;;;6.83;;
19388;SDS011;9830;41.876;23.474;2022-12-29T09:25:51;19.70;;;8.07;;
19388;SDS011;9830;41.876;23.474;2022-12-29T09:28:17;14.37;;;5.80;;
19388;SDS011;9830;41.876;23.474;2022-12-29T09:30:43;14.33;;;7.83;;
19388;SDS011;9830;41.876;23.474;2022-12-29T09:33:09;9.37;;;7.20;;
19388;SDS011;9830;41.876;23.474;2022-12-29T09:35:35;15.13;;;9.67;;
19388;SDS011;9830;41.876;23.474;2022-12-29T09:38:01;11.37;;;8.90;;
19388;SDS011;9830;41.876;23.474;2022-12-29T09:40:30;11.47;;;9.50;;
19388;SDS011;9830;41.876;23.474;2022-12-29T09:45:34;6.50;;;5.13;;
19388;SDS011;9830;41.876;23.474;2022-12-29T09:48:10;16.70;;;6.23;;
19388;SDS011;9830;41.876;23.474;2022-12-29T09:50:44;7.53;;;5.43;;
19388;SDS011;9830;41.876;23.474;2022-12-29T09:53:28;16.60;;;8.87;;
19388;SDS011;9830;41.876;23.474;2022-12-29T09:56:01;6.30;;;4.27;;
19388;SDS011;9830;41.876;23.474;2022-12-29T09:58:30;6.20;;;4.97;;
19388;SDS011;9830;41.876;23.474;2022-12-29T10:01:22;11.60;;;7.13;;
19388;SDS011;9830;41.876;23.474;2022-12-29T10:04:06;9.47;;;7.70;;
19388;SDS011;9830;41.876;23.474;2022-12-29T10:09:17;14.03;;;9.40;;
19388;SDS011;9830;41.876;23.474;2022-12-29T10:17:43;11.27;;;5.43;;
19388;SDS011;9830;41.876;23.474;2022-12-29T10:25:42;6.00;;;5.07;;
19388;SDS011;9830;41.876;23.474;2022-12-29T10:28:21;6.00;;;5.00;;
19388;SDS011;9830;41.876;23.474;2022-12-29T10:30:49;4.10;;;2.80;;
19388;SDS011;9830;41.876;23.474;2022-12-29T10:33:18;3.47;;;3.27;;
19388;SDS011;9830;41.876;23.474;2022-12-29T10:35:48;2.73;;;2.40;;
19388;SDS011;9830;41.876;23.474;2022-12-29T10:46:23;4.00;;;2.70;;
19388;SDS011;9830;41.876;23.474;2022-12-29T10:48:53;3.37;;;3.07;;
19388;SDS011;9830;41.876;23.474;2022-12-29T10:51:22;9.67;;;4.47;;
19388;SDS011;9830;41.876;23.474;2022-12-29T10:54:13;8.17;;;3.37;;
19388;SDS011;9830;41.876;23.474;2022-12-29T10:56:50;5.63;;;2.73;;
19388;SDS011;9830;41.876;23.474;2022-12-29T10:59:23;3.53;;;2.83;;
19388;SDS011;9830;41.876;23.474;2022-12-29T11:07:16;1.63;;;1.53;;
19388;SDS011;9830;41.876;23.474;2022-12-29T11:09:44;3.97;;;2.17;;
19388;SDS011;9830;41.876;23.474;2022-12-29T11:12:44;4.60;;;2.73;;
19388;SDS011;9830;41.876;23.474;2022-12-29T11:17:44;1.40;;;1.30;;
19388;SDS011;9830;41.876;23.474;2022-12-29T11:20:46;1.13;;;1.03;;
19388;SDS011;9830;41.876;23.474;2022-12-29T11:29:03;1.43;;;1.33;;
19388;SDS011;9830;41.876;23.474;2022-12-29T11:31:43;1.47;;;1.43;;
19388;SDS011;9830;41.876;23.474;2022-12-29T11:37:06;1.43;;;1.33;;
19388;SDS011;9830;41.876;23.474;2022-12-29T11:39:41;1.20;;;1.10;;
19388;SDS011;9830;41.876;23.474;2022-12-29T11:42:18;2.23;;;1.93;;
19388;SDS011;9830;41.876;23.474;2022-12-29T11:44:47;3.37;;;2.03;;
19388;SDS011;9830;41.876;23.474;2022-12-29T11:47:48;2.20;;;2.00;;
19388;SDS011;9830;41.876;23.474;2022-12-29T11:50:15;2.10;;;1.90;;
19388;SDS011;9830;41.876;23.474;2022-12-29T11:52:46;2.50;;;1.33;;
19388;SDS011;9830;41.876;23.474;2022-12-29T11:55:21;3.90;;;2.47;;
19388;SDS011;9830;41.876;23.474;2022-12-29T11:57:50;1.73;;;1.63;;
19388;SDS011;9830;41.876;23.474;2022-12-29T12:00:21;2.13;;;2.03;;
19388;SDS011;9830;41.876;23.474;2022-12-29T12:08:27;1.57;;;1.47;;
19388;SDS011;9830;41.876;23.474;2022-12-29T12:11:11;1.50;;;1.40;;
19388;SDS011;9830;41.876;23.474;2022-12-29T12:14:02;5.43;;;1.60;;
19388;SDS011;9830;41.876;23.474;2022-12-29T12:16:43;1.60;;;1.20;;
19388;SDS011;9830;41.876;23.474;2022-12-29T12:19:20;1.47;;;1.27;;
19388;SDS011;9830;41.876;23.474;2022-12-29T12:21:53;3.40;;;2.27;;
19388;SDS011;9830;41.876;23.474;2022-12-29T12:29:32;0.90;;;0.90;;
19388;SDS011;9830;41.876;23.474;2022-12-29T12:32:28;1.40;;;1.27;;
19388;SDS011;9830;41.876;23.474;2022-12-29T12:35:12;2.00;;;1.87;;
19388;SDS011;9830;41.876;23.474;2022-12-29T12:37:48;2.53;;;2.33;;
19388;SDS011;9830;41.876;23.474;2022-12-29T13:13:34;0.50;;;0.50;;
19388;SDS011;9830;41.876;23.474;2022-12-29T13:26:59;0.33;;;0.33;;
19388;SDS011;9830;41.876;23.474;2022-12-29T13:29:43;0.20;;;0.20;;
19388;SDS011;9830;41.876;23.474;2022-12-29T13:41:00;1.87;;;0.60;;
19388;SDS011;9830;41.876;23.474;2022-12-29T13:43:31;1.20;;;0.97;;
19388;SDS011;9830;41.876;23.474;2022-12-29T13:46:02;19.60;;;1.03;;
19388;SDS011;9830;41.876;23.474;2022-12-29T13:49:12;0.30;;;0.23;;
19388;SDS011;9830;41.876;23.474;2022-12-29T13:51:47;0.50;;;0.20;;
19388;SDS011;9830;41.876;23.474;2022-12-29T13:54:27;2.53;;;1.17;;
19388;SDS011;9830;41.876;23.474;2022-12-29T13:56:56;1.87;;;1.03;;
19388;SDS011;9830;41.876;23.474;2022-12-29T13:59:41;2.50;;;1.23;;
19388;SDS011;9830;41.876;23.474;2022-12-29T14:02:19;1.30;;;1.20;;
19388;SDS011;9830;41.876;23.474;2022-12-29T14:08:01;1.70;;;1.03;;
19388;SDS011;9830;41.876;23.474;2022-12-29T14:10:30;1.00;;;0.93;;
19388;SDS011;9830;41.876;23.474;2022-12-29T14:13:06;0.20;;;0.20;;
19388;SDS011;9830;41.876;23.474;2022-12-29T14:15:45;7.80;;;4.13;;
19388;SDS011;9830;41.876;23.474;2022-12-29T14:18:27;19.00;;;4.53;;
19388;SDS011;9830;41.876;23.474;2022-12-29T14:21:00;3.07;;;2.33;;
19388;SDS011;9830;41.876;23.474;2022-12-29T14:23:47;6.77;;;2.83;;
19388;SDS011;9830;41.876;23.474;2022-12-29T14:28:56;2.30;;;0.67;;
19388;SDS011;9830;41.876;23.474;2022-12-29T14:31:49;0.27;;;0.20;;
19388;SDS011;9830;41.876;23.474;2022-12-29T14:49:51;3.60;;;0.80;;
19388;SDS011;9830;41.876;23.474;2022-12-29T14:52:19;8.27;;;1.40;;
19388;SDS011;9830;41.876;23.474;2022-12-29T14:54:54;1.27;;;1.00;;
19388;SDS011;9830;41.876;23.474;2022-12-29T14:57:47;0.13;;;0.13;;
19388;SDS011;9830;41.876;23.474;2022-12-29T15:00:21;0.30;;;0.30;;
19388;SDS011;9830;41.876;23.474;2022-12-29T15:08:16;0.60;;;0.60;;
19388;SDS011;9830;41.876;23.474;2022-12-29T15:13:39;2.40;;;0.60;;
19388;SDS011;9830;41.876;23.474;2022-12-29T15:18:54;0.40;;;0.40;;
19388;SDS011;9830;41.876;23.474;2022-12-29T15:21:29;0.30;;;0.30;;
19388;SDS011;9830;41.876;23.474;2022-12-29T15:23:57;0.73;;;0.73;;
19388;SDS011;9830;41.876;23.474;2022-12-29T15:26:23;2.23;;;0.90;;
19388;SDS011;9830;41.876;23.474;2022-12-29T15:29:03;0.87;;;0.87;;
19388;SDS011;9830;41.876;23.474;2022-12-29T15:31:28;1.33;;;0.83;;
19388;SDS011;9830;41.876;23.474;2022-12-29T15:34:00;1.67;;;1.57;;
19388;SDS011;9830;41.876;23.474;2022-12-29T15:36:36;2.50;;;2.13;;
19388;SDS011;9830;41.876;23.474;2022-12-29T15:39:17;1.53;;;0.50;;
19388;SDS011;9830;41.876;23.474;2022-12-29T15:41:56;0.20;;;0.20;;
19388;SDS011;9830;41.876;23.474;2022-12-29T15:44:42;1.00;;;1.00;;
19388;SDS011;9830;41.876;23.474;2022-12-29T15:49:43;4.63;;;4.23;;
19388;SDS011;9830;41.876;23.474;2022-12-29T15:52:09;8.33;;;3.03;;
19388;SDS011;9830;41.876;23.474;2022-12-29T15:54:37;3.90;;;3.50;;
19388;SDS011;9830;41.876;23.474;2022-12-29T15:57:11;12.20;;;5.33;;
19388;SDS011;9830;41.876;23.474;2022-12-29T15:59:51;5.93;;;1.23;;
19388;SDS011;9830;41.876;23.474;2022-12-29T16:02:18;1.87;;;1.47;;
19388;SDS011;9830;41.876;23.474;2022-12-29T16:04:45;2.17;;;1.07;;
19388;SDS011;9830;41.876;23.474;2022-12-29T16:07:23;0.30;;;0.30;;
19388;SDS011;9830;41.876;23.474;2022-12-29T16:09:53;0.63;;;0.63;;
19388;SDS011;9830;41.876;23.474;2022-12-29T16:12:20;2.67;;;1.50;;
19388;SDS011;9830;41.876;23.474;2022-12-29T16:14:50;1.33;;;0.50;;
19388;SDS011;9830;41.876;23.474;2022-12-29T16:17:23;4.27;;;0.40;;
19388;SDS011;9830;41.876;23.474;2022-12-29T16:22:33;1.63;;;1.17;;
19388;SDS011;9830;41.876;23.474;2022-12-29T16:25:03;4.13;;;1.03;;
19388;SDS011;9830;41.876;23.474;2022-12-29T16:27:39;0.53;;;0.53;;
19388;SDS011;9830;41.876;23.474;2022-12-29T16:30:12;0.63;;;0.63;;
19388;SDS011;9830;41.876;23.474;2022-12-29T16:32:48;0.70;;;0.70;;
19388;SDS011;9830;41.876;23.474;2022-12-29T16:37:45;1.83;;;1.47;;
19388;SDS011;9830;41.876;23.474;2022-12-29T16:42:47;0.20;;;0.20;;
19388;SDS011;9830;41.876;23.474;2022-12-29T16:50:29;1.13;;;0.80;;
19388;SDS011;9830;41.876;23.474;2022-12-29T16:52:56;1.03;;;0.60;;
19388;SDS011;9830;41.876;23.474;2022-12-29T16:55:22;0.73;;;0.73;;
19388;SDS011;9830;41.876;23.474;2022-12-29T16:57:49;2.23;;;0.83;;
19388;SDS011;9830;41.876;23.474;2022-12-29T17:02:48;1.57;;;1.47;;
19388;SDS011;9830;41.876;23.474;2022-12-29T17:05:17;4.00;;;1.77;;
19388;SDS011;9830;41.876;23.474;2022-12-29T17:07:44;0.10;;;0.10;;
19388;SDS011;9830;41.876;23.474;2022-12-29T17:10:10;0.77;;;0.77;;
19388;SDS011;9830;41.876;23.474;2022-12-29T17:12:38;2.00;;;1.40;;
19388;SDS011;9830;41.876;23.474;2022-12-29T17:15:07;0.60;;;0.50;;
19388;SDS011;9830;41.876;23.474;2022-12-29T17:17:51;2.83;;;1.40;;
19388;SDS011;9830;41.876;23.474;2022-12-29T17:20:27;9.93;;;3.20;;
19388;SDS011;9830;41.876;23.474;2022-12-29T17:22:54;1.93;;;1.63;;
19388;SDS011;9830;41.876;23.474;2022-12-29T17:25:33;1.03;;;0.93;;
19388;SDS011;9830;41.876;23.474;2022-12-29T17:28:20;3.53;;;1.43;;
19388;SDS011;9830;41.876;23.474;2022-12-29T17:30:48;5.33;;;1.87;;
19388;SDS011;9830;41.876;23.474;2022-12-29T17:33:17;3.60;;;1.30;;
19388;SDS011;9830;41.876;23.474;2022-12-29T17:35:44;1.20;;;1.20;;
19388;SDS011;9830;41.876;23.474;2022-12-29T17:38:17;3.73;;;2.53;;
19388;SDS011;9830;41.876;23.474;2022-12-29T17:40:45;1.13;;;0.93;;
19388;SDS011;9830;41.876;23.474;2022-12-29T17:43:12;1.27;;;1.20;;
19388;SDS011;9830;41.876;23.474;2022-12-29T17:45:39;9.13;;;1.93;;
19388;SDS011;9830;41.876;23.474;2022-12-29T17:48:13;3.63;;;1.87;;
19388;SDS011;9830;41.876;23.474;2022-12-29T17:50:40;7.43;;;3.53;;
19388;SDS011;9830;41.876;23.474;2022-12-29T17:53:14;12.80;;;4.97;;
19388;SDS011;9830;41.876;23.474;2022-12-29T17:55:43;10.90;;;6.43;;
19388;SDS011;9830;41.876;23.474;2022-12-29T17:58:31;5.50;;;2.37;;
19388;SDS011;9830;41.876;23.474;2022-12-29T18:00:57;5.10;;;3.83;;
19388;SDS011;9830;41.876;23.474;2022-12-29T18:03:28;5.13;;;1.33;;
19388;SDS011;9830;41.876;23.474;2022-12-29T18:05:58;0.87;;;0.87;;
19388;SDS011;9830;41.876;23.474;2022-12-29T18:08:24;0.90;;;0.67;;
19388;SDS011;9830;41.876;23.474;2022-12-29T18:10:52;2.23;;;2.03;;
19388;SDS011;9830;41.876;23.474;2022-12-29T18:15:49;1.37;;;1.37;;
19388;SDS011;9830;41.876;23.474;2022-12-29T18:18:16;1.43;;;1.33;;
19388;SDS011;9830;41.876;23.474;2022-12-29T18:20:52;1.83;;;1.70;;